createdAt,value
2019-02-21T00:02:10.200Z,102064.09
2019-02-21T00:04:42.324Z,102074.23
2019-02-21T00:07:14.096Z,102063.23
2019-02-21T00:09:42.627Z,102069.02
2019-02-21T00:12:13.074Z,102067.19
2019-02-21T00:14:41.642Z,102071.33
2019-02-21T00:17:13.286Z,102071.00
2019-02-21T00:19:42.210Z,102078.11
2019-02-21T00:22:15.604Z,102086.55
2019-02-21T00:34:56.143Z,102076.55
2019-02-21T00:40:31.274Z,102073.70
2019-02-21T00:43:33.545Z,102071.25
2019-02-21T00:46:06.124Z,102070.83
2019-02-21T00:51:54.161Z,102069.13
2019-02-21T00:54:53.651Z,102077.56
2019-02-21T01:00:49.719Z,102080.92
2019-02-21T01:03:18.590Z,102072.62
2019-02-21T01:06:18.055Z,102071.76
2019-02-21T01:11:39.875Z,102078.16
2019-02-21T01:19:52.494Z,102076.09
2019-02-21T01:25:11.965Z,102079.60
2019-02-21T01:27:50.919Z,102084.60
2019-02-21T01:30:19.696Z,102084.95
2019-02-21T01:32:48.251Z,102083.46
2019-02-21T01:35:16.718Z,102083.29
2019-02-21T01:37:45.212Z,102086.50
2019-02-21T01:40:13.641Z,102092.23
2019-02-21T01:42:42.174Z,102088.36
2019-02-21T01:45:13.171Z,102087.78
2019-02-21T01:47:41.725Z,102088.83
2019-02-21T01:50:12.571Z,102088.13
2019-02-21T01:52:41.056Z,102088.95
2019-02-21T01:55:11.378Z,102091.42
2019-02-21T01:57:39.991Z,102093.34
2019-02-21T02:00:14.742Z,102090.95
2019-02-21T02:02:43.265Z,102080.80
2019-02-21T02:05:11.648Z,102085.38
2019-02-21T02:07:40.482Z,102097.70
2019-02-21T02:10:08.966Z,102090.68
2019-02-21T02:12:37.583Z,102095.91
2019-02-21T02:15:09.873Z,102106.80
2019-02-21T02:20:36.212Z,102099.64
2019-02-21T02:23:04.543Z,102115.56
2019-02-21T02:25:33.053Z,102106.08
2019-02-21T02:28:01.799Z,102105.30
2019-02-21T02:30:30.278Z,102115.03
2019-02-21T02:32:58.702Z,102115.03
2019-02-21T02:35:27.936Z,102106.38
2019-02-21T02:37:56.898Z,102098.95
2019-02-21T02:40:25.374Z,102111.14
2019-02-21T02:42:54.132Z,102111.73
2019-02-21T02:45:22.590Z,102108.41
2019-02-21T02:47:50.998Z,102115.33
2019-02-21T02:50:19.795Z,102112.31
2019-02-21T02:52:48.536Z,102120.78
2019-02-21T02:55:17.609Z,102115.48
2019-02-21T02:57:46.077Z,102119.34
2019-02-21T03:00:17.531Z,102118.05
2019-02-21T03:02:46.191Z,102127.81
2019-02-21T03:05:14.620Z,102122.42
2019-02-21T03:07:43.430Z,102126.55
2019-02-21T03:10:14.019Z,102125.72
2019-02-21T03:12:42.990Z,102124.25
2019-02-21T03:15:13.554Z,102121.95
2019-02-21T03:17:42.041Z,102130.52
2019-02-21T03:20:10.563Z,102126.38
2019-02-21T03:22:39.215Z,102124.58
2019-02-21T03:25:07.595Z,102123.48
2019-02-21T03:27:36.044Z,102126.41
2019-02-21T03:30:11.963Z,102124.77
2019-02-21T03:32:38.448Z,102123.25
2019-02-21T03:35:07.278Z,102125.36
2019-02-21T03:37:36.288Z,102121.48
2019-02-21T03:40:06.052Z,102121.41
2019-02-21T03:42:34.822Z,102125.97
2019-02-21T03:45:05.202Z,102123.03
2019-02-21T03:47:41.333Z,102123.03
2019-02-21T03:50:09.797Z,102128.34
2019-02-21T03:52:52.872Z,102129.42
2019-02-21T03:55:21.686Z,102127.23
2019-02-21T03:57:56.693Z,102128.86
2019-02-21T04:00:25.525Z,102126.88
2019-02-21T04:02:54.045Z,102123.94
2019-02-21T04:05:23.091Z,102124.09
2019-02-21T04:07:53.119Z,102121.84
2019-02-21T04:10:21.589Z,102121.53
2019-02-21T04:12:50.704Z,102120.28
2019-02-21T04:15:22.286Z,102123.09
2019-02-21T04:17:52.164Z,102121.11
2019-02-21T04:20:21.836Z,102115.87
2019-02-21T04:22:50.823Z,102110.97
2019-02-21T04:25:19.305Z,102108.81
2019-02-21T04:27:47.867Z,102106.72
2019-02-21T04:30:18.750Z,102102.95
2019-02-21T04:32:47.949Z,102101.43
2019-02-21T04:35:16.446Z,102095.45
2019-02-21T04:37:46.931Z,102105.16
2019-02-21T04:40:15.373Z,102096.53
2019-02-21T04:42:59.830Z,102099.69
2019-02-21T04:48:08.603Z,102098.74
2019-02-21T04:50:37.441Z,102098.88
2019-02-21T04:53:07.614Z,102104.16
2019-02-21T04:55:37.552Z,102099.05
2019-02-21T04:58:27.955Z,102090.17
2019-02-21T05:01:29.855Z,102095.17
2019-02-21T07:29:17.316Z,102166.17
2019-02-21T07:44:22.701Z,102183.81
2019-02-21T07:46:23.364Z,102178.02
2019-02-21T07:49:32.679Z,102178.23
2019-02-21T07:56:00.407Z,102164.14
2019-02-21T07:58:57.585Z,102160.80
2019-02-21T08:02:03.181Z,102170.03
2019-02-21T08:13:47.646Z,102186.88
2019-02-21T08:16:21.689Z,102193.09
2019-02-21T08:18:58.360Z,102206.34
2019-02-21T08:21:31.194Z,102191.45
2019-02-21T08:24:03.444Z,102203.83
2019-02-21T08:26:33.732Z,102203.83
2019-02-21T08:29:13.190Z,102192.14
2019-02-21T08:31:51.210Z,102192.14
2019-02-21T08:34:48.724Z,102207.84
2019-02-21T08:37:41.279Z,102220.23
2019-02-21T08:40:49.263Z,102221.15
2019-02-21T08:43:50.138Z,102214.52
2019-02-21T08:46:21.338Z,102219.23
2019-02-21T08:52:26.402Z,102221.61
2019-02-21T09:10:24.426Z,102230.62
2019-02-21T09:16:29.389Z,102236.08
2019-02-21T09:20:10.967Z,102239.00
2019-02-21T09:22:14.705Z,102253.86
2019-02-21T09:27:50.367Z,102249.19
2019-02-21T09:30:52.622Z,102250.16
2019-02-21T09:38:52.315Z,102267.67
2019-02-21T09:47:03.062Z,102258.19
2019-02-21T10:05:25.318Z,102264.02
2019-02-21T10:07:51.965Z,102259.90
2019-02-21T10:11:11.634Z,102265.45
2019-02-21T10:13:43.977Z,102260.63
2019-02-21T10:16:34.880Z,102269.25
2019-02-21T11:58:28.001Z,102207.06
2019-02-21T12:08:20.271Z,102254.49
2019-02-21T12:17:01.402Z,102259.77
2019-02-21T12:29:45.927Z,102244.31
2019-02-21T12:59:29.884Z,102224.58
2019-02-21T14:28:32.944Z,102262.88
2019-02-21T14:31:43.545Z,102258.44
2019-02-21T14:33:55.966Z,102271.06
2019-02-21T14:36:36.527Z,102260.48
2019-02-21T14:39:10.625Z,102254.49
2019-02-21T14:41:43.829Z,102257.22
2019-02-21T14:44:15.433Z,102257.18
2019-02-21T14:46:50.078Z,102255.44
2019-02-21T14:49:19.117Z,102262.63
2019-02-21T14:51:51.717Z,102253.84
2019-02-21T14:54:25.933Z,102254.36
2019-02-21T15:00:31.508Z,102261.44
2019-02-21T15:03:38.832Z,102255.08
2019-02-21T15:12:59.386Z,102261.84
2019-02-21T15:15:37.927Z,102252.73
2019-02-21T15:18:21.478Z,102255.92
2019-02-21T15:20:56.592Z,102258.44
2019-02-21T15:23:36.902Z,102258.44
2019-02-21T15:26:14.812Z,102254.06
2019-02-21T15:28:53.936Z,102255.11
2019-02-21T15:34:31.112Z,102249.12
2019-02-21T15:36:59.737Z,102253.87
2019-02-21T15:39:30.028Z,102253.16
2019-02-21T15:42:01.777Z,102245.58
2019-02-21T15:44:35.218Z,102244.22
2019-02-21T15:50:33.376Z,102234.48
2019-02-21T15:53:35.318Z,102242.85
2019-02-21T16:11:34.758Z,102258.69
2019-02-21T17:50:05.001Z,102354.91
2019-02-21T18:01:48.551Z,102387.77
2019-02-21T18:04:24.203Z,102384.86
2019-02-21T18:07:02.710Z,102402.77
2019-02-21T18:09:32.853Z,102398.47
2019-02-21T18:12:04.350Z,102402.73
2019-02-21T18:14:37.807Z,102396.25
2019-02-21T18:20:25.136Z,102409.08
2019-02-21T18:29:11.574Z,102406.90
2019-02-21T18:32:00.993Z,102407.75
2019-02-21T18:39:26.460Z,102401.66
2019-02-21T18:51:38.471Z,102410.81
2019-02-21T18:56:27.247Z,102406.28
2019-02-21T18:59:04.529Z,102415.93
2019-02-21T19:07:42.681Z,102415.54
2019-02-21T19:22:21.955Z,102411.77
2019-02-21T19:28:39.667Z,102405.22
2019-02-21T19:37:03.079Z,102413.23
2019-02-21T19:39:53.730Z,102423.48
2019-02-21T19:45:57.535Z,102427.86
2019-02-21T19:51:35.266Z,102434.22
2019-02-21T19:54:36.957Z,102440.20
2019-02-21T20:06:07.389Z,102446.69
2019-02-21T20:20:40.239Z,102462.16
2019-02-21T20:23:45.632Z,102474.23
2019-02-21T20:29:52.096Z,102477.05
2019-02-21T20:32:35.083Z,102483.38
2019-02-21T20:35:11.373Z,102482.11
2019-02-21T20:37:48.492Z,102481.83
2019-02-21T20:40:33.840Z,102483.44
2019-02-21T20:43:05.618Z,102492.13
2019-02-21T20:46:20.624Z,102494.54
2019-02-21T20:55:11.265Z,102517.28
2019-02-21T21:03:38.134Z,102518.95
2019-02-21T21:16:12.968Z,102542.42
2019-02-21T21:21:32.063Z,102552.00
2019-02-21T21:24:09.961Z,102548.91
2019-02-21T21:32:42.705Z,102555.77
2019-02-21T21:35:40.266Z,102560.48
2019-02-21T21:38:24.171Z,102561.77
2019-02-21T21:44:13.417Z,102572.81
2019-02-21T21:56:03.314Z,102584.65
2019-02-21T21:59:04.393Z,102585.55
2019-02-21T22:07:41.236Z,102587.42
2019-02-21T22:10:10.704Z,102584.80
2019-02-21T22:13:11.192Z,102597.41
2019-02-21T22:15:48.565Z,102591.27
2019-02-21T22:18:27.353Z,102600.86
2019-02-21T22:20:57.444Z,102594.73
2019-02-21T22:39:15.857Z,102598.49
2019-02-21T22:41:38.806Z,102601.95
2019-02-21T22:45:30.115Z,102610.70
2019-02-21T22:47:08.798Z,102599.83
2019-02-21T22:53:37.086Z,102593.53
2019-02-21T22:56:18.517Z,102591.20
2019-02-21T23:04:42.929Z,102619.25
2019-02-21T23:07:35.771Z,102631.89
2019-02-21T23:10:07.279Z,102629.86
2019-02-21T23:12:41.574Z,102624.83
2019-02-21T23:15:30.937Z,102623.70
2019-02-21T23:18:06.676Z,102629.44
2019-02-21T23:20:39.880Z,102624.05
2019-02-21T23:23:09.564Z,102631.59
2019-02-21T23:25:49.035Z,102631.03
2019-02-21T23:28:21.415Z,102631.03
2019-02-21T23:30:50.593Z,102632.28
2019-02-21T23:33:28.561Z,102637.15
2019-02-21T23:35:58.315Z,102632.94
2019-02-21T23:38:28.780Z,102636.05
2019-02-21T23:41:01.049Z,102636.87
2019-02-21T23:43:42.760Z,102633.55
2019-02-21T23:46:13.723Z,102633.80
2019-02-21T23:48:48.045Z,102634.41
2019-02-21T23:51:19.320Z,102638.36
2019-02-21T23:53:49.390Z,102636.95
2019-02-21T23:56:27.683Z,102636.07
2019-02-21T23:59:02.473Z,102647.08
